Aérodrome :
LOGIN :

S'inscrire | Disclaimer

   EN    FR    IT 

 










Légende :    VFR   VFR Marginal   IFR   IFR Intensif   IFR Très Intensif
Visi : 
Plafond : 
>= 8 km
>= 3000ft
5 à 8 km
1000 à 3000 ft
1500m à 5 km
500 à 1000 ft
800 à 1500m
200 à 500 ft
< 800m
< 200 ft
Symboles :   Orages  Brouillard  Fortes neiges  Fortes précipitations  Vent > 20 kt
SIGMETs :   Divers  Orages  Givrage  Turbulence  Onde Orograph.  Cendres Volcan.






- Altitude de l'aérodrome : 202 ft
- Code IATA : LGW


EGKK - London Gatwick

DERNIER METAR :
  • 180550Z 34009KT 9999 FEW017 06/04 Q1014

METARs EXPIRÉS :
  • 180520Z 34008KT 9999 FEW020 06/05 Q1013
  • 180450Z 34005KT 9999 FEW018 BKN033 07/05 Q1013
  • 180420Z 34005KT 9999 FEW015 BKN018 07/06 Q1013
  • 180350Z 34008KT 7000 -RA SCT008 BKN012 07/06 Q1013
  • 180320Z 34009KT 9999 SCT013 BKN020 07/06 Q1013

TAF TAF EGKK
Valide du 18 à 06h jusqu'au 19 à 12h UTC


180453Z 1806/1912 34010KT 9999 FEW030
TEMPO 1806/1811 BKN012
BECMG 1820/1823 VRB03KT 8000
PROB40 1821/1901 3000 MIFG BR
BECMG 1901/1904 3000 MIFG BR
PROB40 1901/1909 0300 FZFG VV///
BECMG 1909/1911 9999 NSW



MET'MAP, la Météo Aéronautique d'un coup d'oeil ! - Copyright ORBIFLY Décembre 2007 - Disclaimer

ORBIFLY MET'MAP TEAM :

Programmation & Développement : Alexandra Zaïnal
Conception & Développement : Baudouin d'Aumeries
Co-Programmation & Développement : Marc-Olivier Méhu
Soutien technique & logistique : Manuel Goepfert

Contact : metmap@orbifly.com




SOURCES & CREDITS :

   NOAA